Time;durP1;ratioP1;P1;durP2;ratioP2;P2;SDS_P1;SDS_P2;PMS_P1;PMS_P2;Temp;Humidity;BMP_temperature;BMP_pressure;BME280_temperature;BME280_humidity;BME280_pressure;Samples;Min_cycle;Max_cycle;Signal;HPM_P1;HPM_P2
2022/09/24 00:01:27;;;;;;;26.88;13.15;;;;;;;;;;4976686;28;20203;-50
2022/09/24 00:04:00;;;;;;;21.35;12.40;;;;;;;;;;4976373;28;20207;-51
2022/09/24 00:06:29;;;;;;;19.38;11.68;;;;;;;;;;4976720;28;20290;-54
2022/09/24 00:08:57;;;;;;;18.90;11.50;;;;;;;;;;4976018;28;20206;-53
2022/09/24 00:11:27;;;;;;;19.73;10.82;;;;;;;;;;4976073;28;20206;-52
2022/09/24 00:13:56;;;;;;;17.58;11.68;;;;;;;;;;4976144;28;20203;-54
2022/09/24 00:16:25;;;;;;;20.55;11.68;;;;;;;;;;4975799;28;20568;-53
2022/09/24 00:18:52;;;;;;;17.13;11.02;;;;;;;;;;4975817;28;20628;-53
2022/09/24 00:21:25;;;;;;;17.92;11.13;;;;;;;;;;4976176;28;20203;-55
2022/09/24 00:23:55;;;;;;;14.20;10.38;;;;;;;;;;4977480;28;20217;-50
2022/09/24 00:29:10;;;;;;;19.48;11.73;;;;;;;;;;4980118;28;20210;-51
2022/09/24 00:31:37;;;;;;;19.90;11.07;;;;;;;;;;4979694;28;20206;-51
2022/09/24 00:34:04;;;;;;;17.13;10.50;;;;;;;;;;4979967;28;20206;-51
2022/09/24 00:36:31;;;;;;;16.98;10.73;;;;;;;;;;4979795;28;20658;-53
2022/09/24 00:38:59;;;;;;;19.25;10.13;;;;;;;;;;4980083;28;20210;-55
2022/09/24 00:41:29;;;;;;;17.42;10.77;;;;;;;;;;4979652;28;20241;-53
2022/09/24 00:43:57;;;;;;;17.48;11.05;;;;;;;;;;4979751;28;20209;-53
2022/09/24 00:46:30;;;;;;;16.98;10.25;;;;;;;;;;4979518;28;20199;-52
2022/09/24 00:49:10;;;;;;;14.93;9.35;;;;;;;;;;4979463;28;20203;-54
2022/09/24 00:51:37;;;;;;;16.42;9.88;;;;;;;;;;4978892;28;20217;-53
2022/09/24 00:54:07;;;;;;;17.88;10.68;;;;;;;;;;4978552;28;20527;-53
2022/09/24 00:56:37;;;;;;;16.00;10.10;;;;;;;;;;4963050;28;20207;-50
2022/09/24 00:59:05;;;;;;;16.10;10.88;;;;;;;;;;4962489;28;20211;-50
2022/09/24 01:01:32;;;;;;;16.55;10.25;;;;;;;;;;4962671;28;20546;-51
2022/09/24 01:04:00;;;;;;;20.27;11.45;;;;;;;;;;4979082;28;20632;-55
2022/09/24 01:06:27;;;;;;;18.77;11.20;;;;;;;;;;4979608;28;20528;-54
2022/09/24 01:08:55;;;;;;;18.60;11.15;;;;;;;;;;4979213;28;20214;-50
2022/09/24 01:11:43;;;;;;;18.50;11.00;;;;;;;;;;4962149;28;20211;-53
2022/09/24 01:14:26;;;;;;;38.08;16.67;;;;;;;;;;4978681;28;20207;-56
2022/09/24 01:16:58;;;;;;;28.30;14.38;;;;;;;;;;4978920;28;20636;-55
2022/09/24 01:19:55;;;;;;;18.02;10.90;;;;;;;;;;4978989;28;20199;-55
2022/09/24 01:22:35;;;;;;;22.83;11.13;;;;;;;;;;4979068;28;20526;-56
2022/09/24 01:25:29;;;;;;;17.95;10.70;;;;;;;;;;4979009;28;20257;-52
2022/09/24 01:28:03;;;;;;;21.50;11.35;;;;;;;;;;4978758;28;20588;-53
2022/09/24 01:30:34;;;;;;;18.10;11.00;;;;;;;;;;4978698;28;20210;-56
2022/09/24 01:33:02;;;;;;;16.02;10.57;;;;;;;;;;4961811;28;20648;-51
2022/09/24 01:35:38;;;;;;;19.67;10.07;;;;;;;;;;4960667;28;20640;-51
2022/09/24 01:38:17;;;;;;;15.63;9.85;;;;;;;;;;4979135;28;20221;-53
2022/09/24 01:40:45;;;;;;;17.05;10.10;;;;;;;;;;4970047;28;20284;-55
2022/09/24 01:43:14;;;;;;;17.58;10.52;;;;;;;;;;4998523;28;20194;-57
2022/09/24 01:45:41;;;;;;;15.63;10.23;;;;;;;;;;4981233;28;20229;-55
2022/09/24 01:48:08;;;;;;;18.33;10.52;;;;;;;;;;4998178;28;20244;-53
2022/09/24 01:50:50;;;;;;;18.45;10.40;;;;;;;;;;4981101;28;20213;-52
2022/09/24 01:53:20;;;;;;;18.25;10.80;;;;;;;;;;4980842;28;20206;-52
2022/09/24 01:55:56;;;;;;;16.23;10.00;;;;;;;;;;4997637;28;20213;-53
2022/09/24 01:58:30;;;;;;;15.45;10.18;;;;;;;;;;4980966;28;20245;-51
2022/09/24 02:01:04;;;;;;;19.25;10.43;;;;;;;;;;4997685;28;20217;-53
2022/09/24 02:03:35;;;;;;;15.88;9.88;;;;;;;;;;4997913;28;20209;-52
2022/09/24 02:06:09;;;;;;;20.40;10.48;;;;;;;;;;4980892;28;20210;-51
2022/09/24 02:08:39;;;;;;;18.83;11.07;;;;;;;;;;4980575;28;20623;-54
2022/09/24 02:11:06;;;;;;;18.75;10.93;;;;;;;;;;4997758;28;20206;-50
2022/09/24 02:13:38;;;;;;;16.92;10.93;;;;;;;;;;4997500;28;20546;-52
2022/09/24 02:16:08;;;;;;;20.75;11.35;;;;;;;;;;4980674;28;20223;-56
2022/09/24 02:18:39;;;;;;;22.88;10.85;;;;;;;;;;4980685;28;20504;-55
2022/09/24 02:21:09;;;;;;;18.17;10.25;;;;;;;;;;4980539;28;20285;-55
2022/09/24 02:23:40;;;;;;;17.27;11.13;;;;;;;;;;4980646;28;20206;-54
2022/09/24 02:26:07;;;;;;;20.70;10.82;;;;;;;;;;4980806;28;20190;-55
2022/09/24 02:28:34;;;;;;;17.17;10.90;;;;;;;;;;4997258;28;20218;-57
2022/09/24 02:31:08;;;;;;;17.23;10.68;;;;;;;;;;4997041;28;20268;-51
2022/09/24 02:36:23;;;;;;;19.27;11.20;;;;;;;;;;4997268;28;20198;-52
2022/09/24 02:38:51;;;;;;;17.73;11.00;;;;;;;;;;4997155;28;20221;-54
2022/09/24 02:41:22;;;;;;;17.85;10.60;;;;;;;;;;4996860;28;20249;-55
2022/09/24 02:43:50;;;;;;;20.70;11.18;;;;;;;;;;4997215;28;20194;-55
2022/09/24 02:46:17;;;;;;;18.88;11.23;;;;;;;;;;4996644;28;20202;-52
2022/09/24 02:48:44;;;;;;;20.20;11.75;;;;;;;;;;4997042;28;20213;-51
2022/09/24 02:51:12;;;;;;;19.73;12.13;;;;;;;;;;4996595;28;20640;-51
2022/09/24 02:53:39;;;;;;;22.67;11.82;;;;;;;;;;4996749;28;20210;-57
2022/09/24 02:56:06;;;;;;;19.13;12.32;;;;;;;;;;4996724;28;20260;-55
2022/09/24 02:58:36;;;;;;;20.98;12.63;;;;;;;;;;4996419;28;20654;-55
2022/09/24 03:01:04;;;;;;;20.25;13.52;;;;;;;;;;4996343;28;20671;-55
2022/09/24 03:03:31;;;;;;;22.15;12.75;;;;;;;;;;4996408;28;20202;-51
2022/09/24 03:05:58;;;;;;;22.67;14.35;;;;;;;;;;4996504;28;20550;-54
2022/09/24 03:08:26;;;;;;;22.08;14.20;;;;;;;;;;4996299;28;20214;-56
2022/09/24 03:10:54;;;;;;;26.52;14.10;;;;;;;;;;4996162;28;20213;-53
2022/09/24 03:13:22;;;;;;;28.92;16.35;;;;;;;;;;4996387;28;20217;-50
2022/09/24 03:15:49;;;;;;;23.95;16.05;;;;;;;;;;4996153;28;20222;-56
2022/09/24 03:18:21;;;;;;;25.33;16.02;;;;;;;;;;4996101;28;20620;-58
2022/09/24 03:21:13;;;;;;;31.15;18.10;;;;;;;;;;4982823;28;20303;-54
2022/09/24 03:23:40;;;;;;;22.88;15.15;;;;;;;;;;4996326;28;20206;-49
2022/09/24 03:26:07;;;;;;;22.60;14.40;;;;;;;;;;4996250;28;20206;-53
2022/09/24 03:28:35;;;;;;;23.60;14.40;;;;;;;;;;4996541;28;20217;-52
2022/09/24 03:31:02;;;;;;;23.58;13.57;;;;;;;;;;4995877;28;20226;-53
2022/09/24 03:33:37;;;;;;;22.80;13.65;;;;;;;;;;4995087;28;20210;-60
2022/09/24 03:36:06;;;;;;;24.40;13.20;;;;;;;;;;4995800;28;20198;-51
2022/09/24 03:38:34;;;;;;;21.65;13.13;;;;;;;;;;4995736;28;20206;-50
2022/09/24 03:41:02;;;;;;;24.88;12.48;;;;;;;;;;4984313;28;20671;-56
2022/09/24 03:43:30;;;;;;;20.35;12.07;;;;;;;;;;4974734;28;20207;-55
2022/09/24 03:45:57;;;;;;;17.45;11.82;;;;;;;;;;4974619;28;20230;-54
2022/09/24 03:48:25;;;;;;;21.38;12.80;;;;;;;;;;4974387;28;20202;-51
2022/09/24 03:50:53;;;;;;;20.00;12.65;;;;;;;;;;4974558;28;20667;-54
2022/09/24 03:53:20;;;;;;;19.15;12.77;;;;;;;;;;4996200;28;20267;-57
2022/09/24 03:55:57;;;;;;;22.92;13.93;;;;;;;;;;5003817;28;20296;-57
2022/09/24 03:58:25;;;;;;;20.75;12.50;;;;;;;;;;5003573;28;20193;-50
2022/09/24 04:00:52;;;;;;;24.80;14.10;;;;;;;;;;5004322;28;20221;-58
2022/09/24 04:03:20;;;;;;;17.58;12.55;;;;;;;;;;5002994;28;20198;-50
2022/09/24 04:05:50;;;;;;;24.15;14.10;;;;;;;;;;5004357;28;20259;-57
2022/09/24 04:08:20;;;;;;;19.38;11.30;;;;;;;;;;4986865;28;20221;-59
2022/09/24 04:10:48;;;;;;;20.67;11.82;;;;;;;;;;4996102;28;20268;-58
2022/09/24 04:13:17;;;;;;;19.73;12.60;;;;;;;;;;5005969;28;20206;-51
2022/09/24 04:15:44;;;;;;;19.02;12.00;;;;;;;;;;5000067;28;20528;-54
2022/09/24 04:18:11;;;;;;;20.65;12.38;;;;;;;;;;5003312;28;20201;-54
2022/09/24 04:20:38;;;;;;;21.02;11.70;;;;;;;;;;5002064;28;20232;-59
2022/09/24 04:23:05;;;;;;;25.55;14.13;;;;;;;;;;5004514;28;20193;-54
2022/09/24 04:25:33;;;;;;;22.08;12.70;;;;;;;;;;5003601;28;20198;-53
2022/09/24 04:28:02;;;;;;;21.17;12.95;;;;;;;;;;4989194;28;20272;-51
2022/09/24 04:30:30;;;;;;;19.55;11.30;;;;;;;;;;4976323;28;20283;-56
2022/09/24 04:32:59;;;;;;;21.88;11.45;;;;;;;;;;4975423;28;20612;-49
2022/09/24 04:35:28;;;;;;;18.30;11.13;;;;;;;;;;4975402;28;20556;-50
2022/09/24 04:37:56;;;;;;;21.77;12.73;;;;;;;;;;4984379;28;20214;-54
2022/09/24 04:40:23;;;;;;;18.27;12.27;;;;;;;;;;4995096;28;20225;-59
2022/09/24 04:42:51;;;;;;;18.65;11.48;;;;;;;;;;4995491;28;20249;-52
2022/09/24 04:45:19;;;;;;;18.73;11.82;;;;;;;;;;4994782;28;20206;-58
2022/09/24 04:47:56;;;;;;;18.95;11.57;;;;;;;;;;4993390;28;20197;-54
2022/09/24 04:50:26;;;;;;;21.60;11.95;;;;;;;;;;4998760;28;20706;-56
2022/09/24 04:52:53;;;;;;;20.63;12.18;;;;;;;;;;5003304;28;20543;-52
2022/09/24 04:55:22;;;;;;;19.38;11.90;;;;;;;;;;5004125;28;20207;-53
2022/09/24 04:57:49;;;;;;;17.80;11.57;;;;;;;;;;5002771;28;20202;-55
2022/09/24 05:00:19;;;;;;;20.60;12.75;;;;;;;;;;4992528;28;20234;-52
2022/09/24 05:02:46;;;;;;;21.67;11.23;;;;;;;;;;4972148;28;20293;-53
2022/09/24 05:05:13;;;;;;;18.77;12.02;;;;;;;;;;4987694;28;20251;-51
2022/09/24 05:07:43;;;;;;;21.33;12.60;;;;;;;;;;5001429;28;20307;-57
2022/09/24 05:10:10;;;;;;;17.55;11.57;;;;;;;;;;4985868;28;21153;-55
2022/09/24 05:12:39;;;;;;;20.88;12.90;;;;;;;;;;5001295;28;20232;-56
2022/09/24 05:15:07;;;;;;;21.98;12.40;;;;;;;;;;5002814;28;20213;-53
2022/09/24 05:17:37;;;;;;;20.52;12.35;;;;;;;;;;4997421;28;20222;-56
2022/09/24 05:20:06;;;;;;;20.33;12.15;;;;;;;;;;4963692;28;20226;-52
2022/09/24 05:22:33;;;;;;;19.13;12.15;;;;;;;;;;4997454;28;20234;-54
2022/09/24 05:25:00;;;;;;;18.73;12.38;;;;;;;;;;4997332;28;20222;-54
2022/09/24 05:27:27;;;;;;;19.17;12.13;;;;;;;;;;4997440;28;20279;-54
2022/09/24 05:29:54;;;;;;;18.00;12.07;;;;;;;;;;4997356;28;20309;-59
2022/09/24 05:32:21;;;;;;;21.10;13.15;;;;;;;;;;4997520;28;20238;-52
2022/09/24 05:34:49;;;;;;;19.52;12.95;;;;;;;;;;4997952;28;20551;-57
2022/09/24 05:37:17;;;;;;;18.70;12.63;;;;;;;;;;4997064;28;20226;-54
2022/09/24 05:39:44;;;;;;;18.90;12.18;;;;;;;;;;4997462;28;20309;-53
2022/09/24 05:42:14;;;;;;;19.60;12.15;;;;;;;;;;4979961;28;20312;-57
2022/09/24 05:44:42;;;;;;;20.52;12.95;;;;;;;;;;4997007;28;20222;-52
2022/09/24 05:47:15;;;;;;;19.45;12.55;;;;;;;;;;4996999;28;20245;-56
2022/09/24 05:49:42;;;;;;;18.00;11.38;;;;;;;;;;4997491;28;20260;-52
2022/09/24 05:52:08;;;;;;;21.80;12.82;;;;;;;;;;4996555;28;20241;-52
2022/09/24 05:54:35;;;;;;;19.58;11.90;;;;;;;;;;4997220;28;20234;-57
2022/09/24 05:57:02;;;;;;;24.95;13.45;;;;;;;;;;4996945;28;20293;-50
2022/09/24 05:59:29;;;;;;;18.55;11.35;;;;;;;;;;4995903;28;20772;-50
2022/09/24 06:01:57;;;;;;;19.90;12.15;;;;;;;;;;4997009;28;20304;-52
2022/09/24 06:04:24;;;;;;;19.00;12.52;;;;;;;;;;4991984;28;20670;-53
2022/09/24 06:06:51;;;;;;;19.70;11.85;;;;;;;;;;4997196;28;20261;-50
2022/09/24 06:09:18;;;;;;;19.95;11.98;;;;;;;;;;5001728;28;20225;-50
2022/09/24 06:11:45;;;;;;;19.27;11.65;;;;;;;;;;5003729;28;20227;-54
2022/09/24 06:14:13;;;;;;;20.73;11.77;;;;;;;;;;5007320;28;20313;-52
2022/09/24 06:16:41;;;;;;;18.55;12.60;;;;;;;;;;4999836;28;20670;-52
2022/09/24 06:19:08;;;;;;;20.02;12.57;;;;;;;;;;5001603;28;20336;-52
2022/09/24 06:21:35;;;;;;;20.67;12.63;;;;;;;;;;5005762;28;20612;-54
2022/09/24 06:24:02;;;;;;;19.23;11.35;;;;;;;;;;5004224;28;20217;-57
2022/09/24 06:26:29;;;;;;;23.88;12.63;;;;;;;;;;5003748;28;20214;-56
2022/09/24 06:28:56;;;;;;;20.00;12.23;;;;;;;;;;5002514;28;20300;-53
2022/09/24 06:31:30;;;;;;;22.90;11.80;;;;;;;;;;4998268;28;20232;-57
2022/09/24 06:33:57;;;;;;;18.33;11.73;;;;;;;;;;5004430;28;20300;-55
2022/09/24 06:36:25;;;;;;;20.35;11.60;;;;;;;;;;4995414;28;20229;-56
2022/09/24 06:38:52;;;;;;;17.08;11.63;;;;;;;;;;5004287;28;20753;-57
2022/09/24 06:41:20;;;;;;;19.88;11.82;;;;;;;;;;5002298;28;20685;-57
2022/09/24 06:43:47;;;;;;;16.35;11.23;;;;;;;;;;5007498;28;20228;-57
2022/09/24 06:46:14;;;;;;;17.80;11.88;;;;;;;;;;4984916;28;20230;-56
2022/09/24 06:48:41;;;;;;;18.73;11.70;;;;;;;;;;4998850;28;20218;-57
2022/09/24 06:51:08;;;;;;;16.15;10.75;;;;;;;;;;5003001;28;20670;-57
2022/09/24 06:53:36;;;;;;;17.48;11.40;;;;;;;;;;5002138;28;20265;-56
2022/09/24 06:56:03;;;;;;;19.27;11.52;;;;;;;;;;5002597;28;20218;-55
2022/09/24 06:58:30;;;;;;;16.90;11.80;;;;;;;;;;4999846;28;20491;-57
2022/09/24 07:01:01;;;;;;;16.20;11.40;;;;;;;;;;5003024;28;20286;-57
2022/09/24 07:03:30;;;;;;;15.52;11.40;;;;;;;;;;5004552;28;20325;-55
2022/09/24 07:06:03;;;;;;;21.65;11.10;;;;;;;;;;4996201;28;20284;-55
2022/09/24 07:08:30;;;;;;;15.68;10.48;;;;;;;;;;4999477;28;20229;-57
2022/09/24 07:10:58;;;;;;;14.10;9.55;;;;;;;;;;5002126;28;20324;-56
2022/09/24 07:13:25;;;;;;;18.63;10.57;;;;;;;;;;5002788;28;20630;-57
2022/09/24 07:15:52;;;;;;;15.45;10.23;;;;;;;;;;4999916;28;20202;-58
2022/09/24 07:18:19;;;;;;;14.77;9.63;;;;;;;;;;5003219;28;20594;-57
2022/09/24 07:20:53;;;;;;;12.73;9.02;;;;;;;;;;5002237;28;20197;-56
2022/09/24 07:23:21;;;;;;;17.40;9.85;;;;;;;;;;5003716;28;20190;-58
2022/09/24 07:25:49;;;;;;;16.92;10.80;;;;;;;;;;4996066;28;20217;-56
2022/09/24 07:28:17;;;;;;;15.35;8.85;;;;;;;;;;4996634;28;20228;-57
2022/09/24 07:30:44;;;;;;;15.55;9.90;;;;;;;;;;4986277;28;20226;-53
2022/09/24 07:33:11;;;;;;;14.65;9.25;;;;;;;;;;5000637;28;20238;-55
2022/09/24 07:35:39;;;;;;;14.10;10.07;;;;;;;;;;4999999;28;20241;-56
2022/09/24 07:38:10;;;;;;;12.98;9.52;;;;;;;;;;5002657;28;20272;-54
2022/09/24 07:40:38;;;;;;;13.70;9.35;;;;;;;;;;5000903;28;20234;-55
2022/09/24 07:43:11;;;;;;;12.05;8.63;;;;;;;;;;5002550;28;20237;-54
2022/09/24 07:45:39;;;;;;;12.23;8.60;;;;;;;;;;5000199;28;20233;-57
2022/09/24 07:48:07;;;;;;;12.98;8.45;;;;;;;;;;5002980;28;20268;-55
2022/09/24 07:50:38;;;;;;;11.35;7.72;;;;;;;;;;5004314;28;20543;-54
2022/09/24 07:53:05;;;;;;;12.07;8.27;;;;;;;;;;5003327;28;20251;-55
2022/09/24 07:55:38;;;;;;;10.93;8.02;;;;;;;;;;5004507;28;20198;-55
2022/09/24 07:58:12;;;;;;;12.60;7.85;;;;;;;;;;5002127;28;20709;-56
2022/09/24 08:00:40;;;;;;;11.30;7.00;;;;;;;;;;5001082;28;20525;-53
2022/09/24 08:03:07;;;;;;;13.00;7.40;;;;;;;;;;5002398;28;20279;-55
2022/09/24 08:05:34;;;;;;;11.45;7.53;;;;;;;;;;4998990;28;20521;-57
2022/09/24 08:08:01;;;;;;;9.55;7.63;;;;;;;;;;5003179;28;20194;-55
2022/09/24 08:10:28;;;;;;;11.50;7.28;;;;;;;;;;5003094;28;20215;-55
2022/09/24 08:12:58;;;;;;;10.80;7.28;;;;;;;;;;5004570;28;20642;-56
2022/09/24 08:15:25;;;;;;;11.65;7.47;;;;;;;;;;5002422;28;20213;-56
2022/09/24 08:17:52;;;;;;;10.65;6.70;;;;;;;;;;5014892;28;20259;-55
2022/09/24 08:20:20;;;;;;;9.68;7.43;;;;;;;;;;5011092;28;20243;-54
2022/09/24 08:22:47;;;;;;;9.35;6.10;;;;;;;;;;5003989;28;20230;-56
2022/09/24 08:25:14;;;;;;;11.35;6.32;;;;;;;;;;5002228;28;20264;-55
2022/09/24 08:27:41;;;;;;;9.38;6.30;;;;;;;;;;5002889;28;20201;-53
2022/09/24 08:30:09;;;;;;;8.77;6.18;;;;;;;;;;5000466;28;20344;-54
2022/09/24 08:32:36;;;;;;;8.80;6.13;;;;;;;;;;5003530;28;20573;-56
2022/09/24 08:35:03;;;;;;;14.52;6.30;;;;;;;;;;5006655;28;20516;-56
2022/09/24 08:37:31;;;;;;;9.40;6.03;;;;;;;;;;5003214;28;20202;-52
2022/09/24 08:39:58;;;;;;;9.38;6.07;;;;;;;;;;5003451;28;20209;-54
2022/09/24 08:42:42;;;;;;;11.40;5.10;;;;;;;;;;5003384;28;20296;-54
2022/09/24 08:48:19;;;;;;;10.32;4.78;;;;;;;;;;5006425;28;20198;-54
2022/09/24 08:51:00;;;;;;;6.75;4.97;;;;;;;;;;4987948;28;20198;-55
2022/09/24 08:53:58;;;;;;;6.22;4.40;;;;;;;;;;5004926;28;20551;-56
2022/09/24 08:56:28;;;;;;;7.32;4.35;;;;;;;;;;5006741;28;20214;-56
2022/09/24 08:59:00;;;;;;;5.43;4.28;;;;;;;;;;5004183;28;20209;-57
2022/09/24 09:01:35;;;;;;;5.05;4.20;;;;;;;;;;4987464;28;20281;-57
2022/09/24 09:04:40;;;;;;;6.60;3.90;;;;;;;;;;5000308;28;20220;-56
2022/09/24 09:07:15;;;;;;;4.93;3.75;;;;;;;;;;5002918;28;20248;-57
2022/09/24 09:10:00;;;;;;;5.70;4.38;;;;;;;;;;4987631;28;20236;-57
2022/09/24 09:12:34;;;;;;;7.38;5.15;;;;;;;;;;5003301;28;20229;-57
2022/09/24 09:15:05;;;;;;;8.27;4.38;;;;;;;;;;5003213;28;20213;-57
2022/09/24 09:17:56;;;;;;;6.43;4.68;;;;;;;;;;4999797;28;20214;-57
2022/09/24 09:20:30;;;;;;;6.78;4.65;;;;;;;;;;4990123;28;20230;-57
2022/09/24 09:23:02;;;;;;;6.20;4.00;;;;;;;;;;4985733;28;20248;-56
2022/09/24 09:25:33;;;;;;;5.28;3.45;;;;;;;;;;4995653;28;20245;-57
2022/09/24 09:28:05;;;;;;;5.65;4.45;;;;;;;;;;4986394;28;20658;-56
2022/09/24 09:30:58;;;;;;;6.22;3.47;;;;;;;;;;4985080;28;20213;-57
2022/09/24 09:33:48;;;;;;;6.88;3.70;;;;;;;;;;4969630;28;20310;-53
2022/09/24 09:36:15;;;;;;;5.80;3.70;;;;;;;;;;5000430;28;20217;-56
2022/09/24 09:39:10;;;;;;;3.60;2.75;;;;;;;;;;5002927;28;20365;-57
2022/09/24 09:41:48;;;;;;;4.35;2.80;;;;;;;;;;5002642;28;20241;-57
2022/09/24 09:44:21;;;;;;;4.78;3.10;;;;;;;;;;4982760;28;20225;-54
2022/09/24 09:46:53;;;;;;;4.65;3.05;;;;;;;;;;4985071;28;20307;-57
2022/09/24 09:49:21;;;;;;;7.30;2.40;;;;;;;;;;4983572;28;20221;-55
2022/09/24 09:51:48;;;;;;;5.00;2.80;;;;;;;;;;5004688;28;20310;-55
2022/09/24 09:54:15;;;;;;;5.00;3.08;;;;;;;;;;5000161;28;20241;-57
2022/09/24 09:56:47;;;;;;;4.28;2.58;;;;;;;;;;5002422;28;20209;-54
2022/09/24 09:59:21;;;;;;;4.43;2.95;;;;;;;;;;5001137;28;20632;-55
2022/09/24 10:01:56;;;;;;;5.47;2.90;;;;;;;;;;4985241;28;20225;-54
2022/09/24 10:04:42;;;;;;;4.38;2.83;;;;;;;;;;4982657;28;20693;-55
2022/09/24 10:07:11;;;;;;;4.85;3.28;;;;;;;;;;5005754;28;20229;-56
2022/09/24 10:09:39;;;;;;;3.22;2.53;;;;;;;;;;5004584;28;20253;-53
2022/09/24 10:12:21;;;;;;;4.88;2.70;;;;;;;;;;5009969;28;20225;-55
2022/09/24 10:14:57;;;;;;;3.78;2.40;;;;;;;;;;5001947;28;20272;-55
2022/09/24 10:17:28;;;;;;;3.72;2.88;;;;;;;;;;5002565;28;20222;-55
2022/09/24 10:19:55;;;;;;;8.57;2.70;;;;;;;;;;4981444;28;20229;-56
2022/09/24 10:22:24;;;;;;;4.32;2.45;;;;;;;;;;5000255;28;20291;-55
2022/09/24 10:24:52;;;;;;;3.88;2.90;;;;;;;;;;5004023;28;20237;-55
2022/09/24 10:27:33;;;;;;;4.55;2.97;;;;;;;;;;4990055;28;20594;-47
2022/09/24 10:32:56;;;;;;;3.63;2.65;;;;;;;;;;4988863;28;20229;-56
2022/09/24 10:35:35;;;;;;;3.60;2.25;;;;;;;;;;4985979;28;20266;-51
2022/09/24 10:38:14;;;;;;;4.85;2.35;;;;;;;;;;5002653;28;20217;-51
2022/09/24 10:40:41;;;;;;;4.85;2.97;;;;;;;;;;5002307;28;20222;-54
2022/09/24 10:43:19;;;;;;;9.13;2.83;;;;;;;;;;5003440;28;20236;-55
2022/09/24 10:46:00;;;;;;;5.45;3.00;;;;;;;;;;5001238;28;20240;-54
2022/09/24 10:48:37;;;;;;;3.97;3.15;;;;;;;;;;5003014;28;20218;-48
2022/09/24 10:51:27;;;;;;;18.83;4.35;;;;;;;;;;5003180;28;20224;-51
2022/09/24 10:54:21;;;;;;;8.60;3.35;;;;;;;;;;5004474;28;20233;-53
2022/09/24 10:56:53;;;;;;;3.08;2.40;;;;;;;;;;4992228;28;20272;-49
2022/09/24 10:59:40;;;;;;;3.47;2.35;;;;;;;;;;4999247;28;20694;-55
2022/09/24 11:02:12;;;;;;;2.83;2.50;;;;;;;;;;4995640;28;20241;-49
2022/09/24 11:04:50;;;;;;;4.03;2.80;;;;;;;;;;4994606;28;20304;-51
2022/09/24 11:07:24;;;;;;;5.32;3.20;;;;;;;;;;4994596;28;20225;-52
2022/09/24 11:10:22;;;;;;;6.10;2.85;;;;;;;;;;4978580;28;20268;-51
2022/09/24 11:13:09;;;;;;;4.45;2.75;;;;;;;;;;4979170;28;20583;-56
2022/09/24 11:16:08;;;;;;;3.83;2.63;;;;;;;;;;4979657;28;20203;-56
2022/09/24 11:18:40;;;;;;;4.22;2.78;;;;;;;;;;4975717;28;20198;-55
2022/09/24 11:21:26;;;;;;;5.32;2.95;;;;;;;;;;4996063;28;20194;-56
2022/09/24 11:24:02;;;;;;;4.63;3.13;;;;;;;;;;4994966;28;20218;-56
2022/09/24 11:26:51;;;;;;;6.20;3.17;;;;;;;;;;4996596;28;20273;-55
2022/09/24 11:29:57;;;;;;;4.85;3.42;;;;;;;;;;4998024;28;20201;-53
2022/09/24 11:33:13;;;;;;;3.10;2.60;;;;;;;;;;4984801;28;20200;-52
2022/09/24 11:36:07;;;;;;;6.10;3.35;;;;;;;;;;5002645;28;20209;-54
2022/09/24 11:39:00;;;;;;;4.90;3.35;;;;;;;;;;5001579;28;20602;-54
2022/09/24 11:41:59;;;;;;;5.95;3.50;;;;;;;;;;4988238;28;20260;-54
2022/09/24 11:45:01;;;;;;;5.82;3.03;;;;;;;;;;5006835;28;20232;-49
2022/09/24 11:47:40;;;;;;;6.00;3.60;;;;;;;;;;4987818;28;20212;-55
2022/09/24 11:50:37;;;;;;;6.75;3.65;;;;;;;;;;5001516;28;20190;-48
2022/09/24 11:53:09;;;;;;;6.53;2.95;;;;;;;;;;4993645;28;20205;-49
2022/09/24 11:55:52;;;;;;;5.07;2.85;;;;;;;;;;4978562;28;20220;-55
2022/09/24 11:58:32;;;;;;;3.88;3.45;;;;;;;;;;4985278;28;20280;-56
2022/09/24 12:01:31;;;;;;;4.63;3.20;;;;;;;;;;4987510;28;20194;-52
2022/09/24 12:04:21;;;;;;;5.75;3.67;;;;;;;;;;4952762;29;20291;-48
2022/09/24 12:07:01;;;;;;;6.45;3.20;;;;;;;;;;4953316;29;20680;-48
2022/09/24 12:09:39;;;;;;;7.35;3.15;;;;;;;;;;4955201;29;20203;-47
2022/09/24 12:12:11;;;;;;;3.75;2.50;;;;;;;;;;4955186;28;20207;-49
2022/09/24 12:14:52;;;;;;;3.97;2.20;;;;;;;;;;4911371;29;20352;-48
2022/09/24 12:17:33;;;;;;;5.70;2.90;;;;;;;;;;4934262;29;20240;-53
2022/09/24 12:20:17;;;;;;;5.15;2.92;;;;;;;;;;4933984;29;20234;-50
2022/09/24 12:22:50;;;;;;;4.68;2.95;;;;;;;;;;4934226;29;20302;-48
2022/09/24 12:25:17;;;;;;;4.13;2.90;;;;;;;;;;4934702;29;20236;-51
2022/09/24 12:27:45;;;;;;;3.72;2.55;;;;;;;;;;4935197;29;20267;-48
2022/09/24 12:32:58;;;;;;;2.60;2.28;;;;;;;;;;4935095;29;20224;-52
2022/09/24 12:35:27;;;;;;;4.50;2.42;;;;;;;;;;4934559;29;20271;-54
2022/09/24 12:38:03;;;;;;;3.63;2.75;;;;;;;;;;4935049;29;20320;-48
2022/09/24 12:41:02;;;;;;;3.22;2.53;;;;;;;;;;4959771;28;20559;-54
2022/09/24 12:43:36;;;;;;;3.17;2.28;;;;;;;;;;4990001;28;20248;-50
2022/09/24 12:46:05;;;;;;;3.60;2.60;;;;;;;;;;4976658;28;20555;-54
2022/09/24 12:48:43;;;;;;;4.70;2.80;;;;;;;;;;4977191;28;20242;-56
2022/09/24 12:51:11;;;;;;;7.90;2.67;;;;;;;;;;4977064;28;20275;-55
2022/09/24 12:53:41;;;;;;;2.85;2.28;;;;;;;;;;4994399;28;20233;-48
2022/09/24 12:56:09;;;;;;;2.85;2.30;;;;;;;;;;4974352;28;20614;-47
2022/09/24 12:58:42;;;;;;;3.40;2.90;;;;;;;;;;4994186;28;20234;-53
2022/09/24 13:01:24;;;;;;;4.13;2.38;;;;;;;;;;4993919;28;20226;-48
2022/09/24 13:04:05;;;;;;;4.32;2.70;;;;;;;;;;4994284;28;20257;-52
2022/09/24 13:06:36;;;;;;;3.72;2.35;;;;;;;;;;4992531;28;20234;-52
2022/09/24 13:09:23;;;;;;;2.70;2.10;;;;;;;;;;4994039;28;20226;-48
2022/09/24 13:12:13;;;;;;;3.42;2.30;;;;;;;;;;4976912;28;20232;-48
2022/09/24 13:14:46;;;;;;;5.78;2.55;;;;;;;;;;4993213;28;20698;-49
2022/09/24 13:17:13;;;;;;;3.42;2.00;;;;;;;;;;4977109;28;20238;-48
2022/09/24 13:19:43;;;;;;;6.15;2.30;;;;;;;;;;4992745;28;20226;-55
2022/09/24 13:22:34;;;;;;;4.40;2.20;;;;;;;;;;4995178;28;20221;-54
2022/09/24 13:25:07;;;;;;;4.07;1.80;;;;;;;;;;4995689;28;20225;-57
2022/09/24 13:27:36;;;;;;;2.45;1.90;;;;;;;;;;4997241;28;20236;-56
2022/09/24 13:30:25;;;;;;;2.22;1.90;;;;;;;;;;5004334;28;20239;-56
2022/09/24 13:32:59;;;;;;;3.65;1.90;;;;;;;;;;5003614;28;20674;-56
2022/09/24 13:35:30;;;;;;;3.83;1.70;;;;;;;;;;4989437;28;20221;-56
2022/09/24 13:38:31;;;;;;;3.08;1.83;;;;;;;;;;5001117;28;20221;-56
2022/09/24 13:41:19;;;;;;;3.03;1.70;;;;;;;;;;4973079;28;20348;-57
2022/09/24 13:43:51;;;;;;;2.90;1.90;;;;;;;;;;5004338;28;20233;-56
2022/09/24 13:46:19;;;;;;;7.03;2.25;;;;;;;;;;4988922;28;20218;-56
2022/09/24 13:48:57;;;;;;;3.55;2.03;;;;;;;;;;4987159;28;20553;-56
2022/09/24 13:51:29;;;;;;;3.42;1.92;;;;;;;;;;4986702;28;20661;-56
2022/09/24 13:54:05;;;;;;;3.70;2.22;;;;;;;;;;5002784;28;20658;-56
2022/09/24 13:56:32;;;;;;;4.00;1.83;;;;;;;;;;5001433;28;20259;-57
2022/09/24 13:59:05;;;;;;;3.95;2.17;;;;;;;;;;4988066;28;20667;-56
2022/09/24 14:01:39;;;;;;;4.10;2.70;;;;;;;;;;4998012;28;20674;-57
2022/09/24 14:04:15;;;;;;;6.00;2.95;;;;;;;;;;5004965;28;20244;-54
2022/09/24 14:06:49;;;;;;;4.88;2.75;;;;;;;;;;5003114;28;20221;-55
2022/09/24 14:09:26;;;;;;;5.53;3.15;;;;;;;;;;5001661;28;20229;-55
2022/09/24 14:11:58;;;;;;;3.50;2.35;;;;;;;;;;5002329;28;20232;-56
2022/09/24 14:14:27;;;;;;;3.58;2.40;;;;;;;;;;5003660;28;20229;-57
2022/09/24 14:17:08;;;;;;;5.35;2.88;;;;;;;;;;5002871;28;20225;-56
2022/09/24 14:19:35;;;;;;;4.00;2.60;;;;;;;;;;5001110;28;20226;-54
2022/09/24 14:22:04;;;;;;;7.03;3.75;;;;;;;;;;4986599;28;20233;-56
2022/09/24 14:24:41;;;;;;;9.85;5.47;;;;;;;;;;4986748;28;20225;-55
2022/09/24 14:27:14;;;;;;;6.15;2.85;;;;;;;;;;5004713;28;20225;-55
2022/09/24 14:29:47;;;;;;;9.45;4.47;;;;;;;;;;4986486;28;20194;-55
2022/09/24 14:32:21;;;;;;;5.60;4.38;;;;;;;;;;5001758;28;20189;-56
2022/09/24 14:34:54;;;;;;;4.95;3.10;;;;;;;;;;5004892;28;20202;-56
2022/09/24 14:37:30;;;;;;;10.73;4.40;;;;;;;;;;5000787;28;20233;-56
2022/09/24 14:40:00;;;;;;;3.97;2.63;;;;;;;;;;4997793;28;20271;-56
2022/09/24 14:42:40;;;;;;;5.00;2.45;;;;;;;;;;4986675;28;20237;-56
2022/09/24 14:45:09;;;;;;;3.58;2.55;;;;;;;;;;5006270;28;20194;-53
2022/09/24 14:47:36;;;;;;;3.00;2.17;;;;;;;;;;4986901;28;20206;-53
2022/09/24 14:50:21;;;;;;;6.65;3.22;;;;;;;;;;5005038;28;20210;-55
2022/09/24 14:52:55;;;;;;;5.82;2.88;;;;;;;;;;4985492;28;20198;-55
2022/09/24 14:55:41;;;;;;;5.35;2.58;;;;;;;;;;5006776;28;20567;-55
2022/09/24 14:58:26;;;;;;;5.07;2.45;;;;;;;;;;5005494;28;20194;-55
2022/09/24 15:00:58;;;;;;;6.50;2.80;;;;;;;;;;5002900;28;20202;-54
2022/09/24 15:03:49;;;;;;;4.13;2.30;;;;;;;;;;4985547;28;20675;-55
2022/09/24 15:06:27;;;;;;;4.15;2.13;;;;;;;;;;4987907;28;20194;-57
2022/09/24 15:09:00;;;;;;;2.38;1.98;;;;;;;;;;5004387;28;20508;-55
2022/09/24 15:11:35;;;;;;;7.80;1.52;;;;;;;;;;5002600;28;20659;-56
2022/09/24 15:14:15;;;;;;;24.13;6.85;;;;;;;;;;5006351;28;20276;-54
2022/09/24 15:16:45;;;;;;;13.80;5.35;;;;;;;;;;5003628;28;20197;-53